createdAt,value
2023-03-24T00:05:43.568Z,100345.87
2023-03-24T00:09:43.164Z,100341.52
2023-03-24T00:14:12.460Z,100339.80
2023-03-24T00:18:43.327Z,100336.98
2023-03-24T00:23:12.177Z,100335.36
2023-03-24T00:39:48.816Z,100312.39
2023-03-24T00:44:10.804Z,100304.73
2023-03-24T00:48:40.956Z,100296.26
2023-03-24T01:15:31.510Z,100257.99
2023-03-24T01:20:00.882Z,100253.55
2023-03-24T01:24:30.296Z,100255.55
2023-03-24T01:28:40.899Z,100251.41
2023-03-24T01:32:43.375Z,100242.11
2023-03-24T01:54:23.859Z,100221.35
2023-03-24T01:58:28.537Z,100207.17
2023-03-24T02:02:56.265Z,100205.27
2023-03-24T02:34:43.827Z,100180.85
2023-03-24T02:39:24.139Z,100171.73
2023-03-24T02:57:02.591Z,100140.92
2023-03-24T03:01:44.148Z,100128.13
2023-03-24T03:06:30.655Z,100110.30
2023-03-24T03:19:49.131Z,100078.94
2023-03-24T03:24:20.100Z,100072.10
2023-03-24T03:28:39.978Z,100051.23
2023-03-24T03:32:57.973Z,100041.04
2023-03-24T03:37:36.066Z,100037.06
2023-03-24T03:41:54.824Z,100042.45
2023-03-24T04:03:27.210Z,100024.29
2023-03-24T04:08:04.299Z,100014.60
2023-03-24T04:12:32.079Z,100018.21
2023-03-24T04:34:56.466Z,99981.24
2023-03-24T04:39:21.451Z,99976.60
2023-03-24T04:43:39.523Z,99974.59
2023-03-24T04:48:09.696Z,99964.58
2023-03-24T04:52:32.819Z,99965.80
2023-03-24T05:13:28.660Z,99951.77
2023-03-24T05:17:57.906Z,99946.82
2023-03-24T05:22:04.649Z,99944.75
2023-03-24T05:25:51.097Z,99933.24
2023-03-24T05:29:10.154Z,99925.19
2023-03-24T05:32:24.314Z,99919.69
2023-03-24T05:36:13.706Z,99911.74
2023-03-24T07:05:55.126Z,99814.10
2023-03-24T07:22:34.652Z,99815.67
2023-03-24T07:27:02.505Z,99798.84
2023-03-24T08:04:02.934Z,99758.95
2023-03-24T08:08:31.351Z,99757.94
2023-03-24T08:12:26.613Z,99764.30
2023-03-24T08:16:46.504Z,99762.05
2023-03-24T08:21:06.633Z,99756.94
2023-03-24T10:00:19.596Z,99691.12
2023-03-24T10:04:48.916Z,99710.34
2023-03-24T10:09:36.137Z,99704.33
2023-03-24T10:13:57.780Z,99711.29
2023-03-24T10:18:51.347Z,99707.38
2023-03-24T10:23:13.282Z,99717.86
2023-03-24T10:27:43.860Z,99719.52
2023-03-24T10:31:52.092Z,99725.16
2023-03-24T10:36:35.988Z,99720.35
2023-03-24T10:41:08.162Z,99721.02
2023-03-24T11:19:08.293Z,99718.28
2023-03-24T11:23:37.674Z,99717.37
2023-03-24T11:27:56.734Z,99720.80
2023-03-24T11:32:35.606Z,99711.78
2023-03-24T11:36:49.734Z,99703.34
2023-03-24T12:35:29.421Z,99701.45
2023-03-24T12:39:50.824Z,99716.89
2023-03-24T12:44:10.380Z,99719.88
2023-03-24T12:48:36.473Z,99724.63
2023-03-24T12:57:13.231Z,99743.54
2023-03-24T13:30:21.450Z,99739.30
2023-03-24T14:08:32.993Z,99778.52
2023-03-24T14:12:27.394Z,99769.05
2023-03-24T14:16:20.182Z,99761.54
2023-03-24T14:20:55.824Z,99770.88
2023-03-24T14:25:24.960Z,99778.02
2023-03-24T14:29:50.138Z,99776.06
2023-03-24T14:33:40.473Z,99789.20
2023-03-24T14:37:49.009Z,99793.84
2023-03-24T14:46:51.294Z,99817.33
2023-03-24T14:51:03.850Z,99825.11
2023-03-24T14:55:39.215Z,99828.94
2023-03-24T14:59:57.135Z,99828.92
2023-03-24T15:04:24.765Z,99821.23
2023-03-24T15:29:36.423Z,99798.03
2023-03-24T15:33:49.908Z,99786.23
2023-03-24T15:38:10.512Z,99731.11
2023-03-24T15:42:13.734Z,99771.90
2023-03-24T15:46:12.968Z,99768.52
2023-03-24T15:50:24.498Z,99764.70
2023-03-24T15:54:37.728Z,99770.66
2023-03-24T15:58:54.715Z,99778.83
2023-03-24T18:06:06.470Z,99930.10
2023-03-24T18:10:35.671Z,99931.63
2023-03-24T18:14:40.329Z,99938.40
2023-03-24T18:19:09.040Z,99942.19
2023-03-24T18:23:26.815Z,99941.90
2023-03-24T18:49:30.101Z,99963.52
2023-03-24T18:54:01.189Z,99971.27
2023-03-24T18:58:11.066Z,99977.20
2023-03-24T19:02:29.810Z,99981.50
2023-03-24T19:07:00.452Z,99979.93
2023-03-24T19:28:48.847Z,99998.01
2023-03-24T19:33:10.262Z,99999.53
2023-03-24T19:37:25.562Z,99998.21
2023-03-24T19:41:39.378Z,99993.70
2023-03-24T20:05:55.183Z,99981.17
2023-03-24T20:10:14.938Z,99984.27
2023-03-24T20:14:01.626Z,99981.98
2023-03-24T20:18:23.237Z,99986.00
2023-03-24T20:22:39.839Z,99989.05
2023-03-24T20:27:04.036Z,99991.41
2023-03-24T20:30:49.404Z,99988.40
2023-03-24T22:01:15.884Z,100017.84
2023-03-24T22:05:44.718Z,100011.27
2023-03-24T22:10:06.559Z,100010.66
2023-03-24T22:14:24.060Z,100008.32
2023-03-24T22:18:53.390Z,100015.23
2023-03-24T22:53:30.563Z,100040.18
2023-03-24T22:57:59.980Z,100041.08
2023-03-24T23:02:29.890Z,100040.07
2023-03-24T23:34:01.710Z,100025.39
2023-03-24T23:38:31.830Z,100023.73
